Brisbin, PA (16620)

07:56 PM EST die 01o March, anno 2015 (GMT -0500)
South Philipsburg | Change Station
CLOSE
Current Station
Personal Weather Stations
Location: Philipsburg, PA
Elevation: 1444 ft
Nearby Weather Stations

Elev 1444 ft 40.89 °N, 78.22 °W | Updated 1 minute ago

Nix
Nix
29.9 °F
Feels Like 30 °F
N
0.0
Ventus Variabilis Ventus from Inter Austrum et Eurum
Gusts 0.0 mph

Hodie
High -- | Low -- °F
--% Chance of Precip.
Yesterday
High -- | Low -- °F
Precip. -- in
6:47 AM 6:04 PM
Waxing Gibbous, 88% visible
Pressio 30.14 in
Visibilitas 1.0 milia passuum
Clouds Aequaliter Nubila 300 ft
Frigus Venti 30 °F
Frigus in quo Ros apparet 28 °F
Umor 94%
Rainfall 0.00 in
Snow Depth Not available.
UV 0 out of 12
Pollen .50 out of 12
Air Quality Not available.
Flu Activity Not available.
SPECI KFIG 020028Z AUTO 00000KT 1SM -SN BR OVC003 M02/M02 A3014 RMK AO2 P0004 T10171022

More Conditions Fewer Conditions

Pressio 30.14 in
Visibilitas 1.0 milia passuum
Clouds Aequaliter Nubila 300 ft
Frigus Venti 30 °F
Frigus in quo Ros apparet 28 °F
Umor 94%
Rainfall 0.00 in
Snow Depth Not available.
UV 0 out of 12
Pollen .50 out of 12
Air Quality Not available.
Flu Activity Not available.
SPECI KFIG 020028Z AUTO 00000KT 1SM -SN BR OVC003 M02/M02 A3014 RMK AO2 P0004 T10171022

More Conditions Fewer Conditions

10-Day Weather Forecast

Almanac

Astronomy

Mar. 01, 2015 Rise Set
Actual Time
Civil Twilight
Nautical Twilight
Astronomical Twilight
Moon
Length Of Visible Light
Length of Day
Tomorrow will be .
, % of the Moon is Illuminated

Today's Extremes

State Highs State Lows

Community

WunderPhotos

Upload Photos

1,801,659 photos uploaded!

WunderBlogs® & News

Nearby

Air Quality

  Air Quality AQ Index Pollutant
Not available.

Snow Depth

Station Depth Elevation

Earthquake Activity

City Distance Mag. Time & Date
Minimum magnitude displayed is 2.5.

Coastal Water Temperatures

Locus Calor

Nearby Weather Stations

Winter Weather Advisory
Statement as of 01:32 PM EST die 01o March, anno 2015

... Winter Weather Advisory remains in effect until 7 am EST
Monday...

* locations... the northwest mountains.

* Hazard types... snow.

* Accumulations... 3 to 5 inches of snow.

* Timing... snow will fall much of the time this afternoon and
continue into tonight. The snow will taper off to scattered
snow showers late tonight.

* Impacts... hazardous travel from snow covered roads and poor
visibility at times.

Precautionary/preparedness actions...

Hazardous winter weather conditions are expected or occurring.
Use caution if traveling. For the latest weather information... go
to weather.Gov/statecollege or monitor NOAA Weather Radio.

Report snow or ice accumulation to the National Weather Service
State College by sending an email to ctp.Stormreports@noaa.Gov...
posting to the NWS State College facebook Page... or tweet
@nwsstatecollege with the hashtag c... T... p... W... x.